createdAt,value
2023-04-04T00:01:06.642Z,0.12
2023-04-04T00:03:47.255Z,-0.00
2023-04-04T00:06:31.055Z,-0.13
2023-04-04T00:09:07.073Z,-0.21
2023-04-04T00:11:42.340Z,-0.22
2023-04-04T00:14:17.854Z,-0.18
2023-04-04T00:16:53.523Z,-0.22
2023-04-04T00:19:28.620Z,-0.22
2023-04-04T00:22:04.544Z,-0.26
2023-04-04T00:24:40.131Z,-0.34
2023-04-04T00:27:15.140Z,-0.41
2023-04-04T00:29:49.900Z,-0.41
2023-04-04T00:32:23.415Z,-0.39
2023-04-04T00:34:59.239Z,-0.44
2023-04-04T00:37:39.227Z,-0.50
2023-04-04T00:40:16.671Z,-0.50
2023-04-04T00:42:52.245Z,-0.55
2023-04-04T00:45:28.863Z,-0.55
2023-04-04T00:48:06.960Z,-0.57
2023-04-04T00:50:42.697Z,-0.58
2023-04-04T00:53:19.572Z,-0.59
2023-04-04T00:55:55.122Z,-0.56
2023-04-04T00:58:31.639Z,-0.57
2023-04-04T01:01:06.023Z,-0.56
2023-04-04T01:03:43.101Z,-0.57
2023-04-04T01:06:18.833Z,-0.58
2023-04-04T01:08:59.073Z,-0.54
2023-04-04T01:11:36.287Z,-0.52
2023-04-04T01:14:12.035Z,-0.53
2023-04-04T01:16:49.839Z,-0.50
2023-04-04T01:19:34.479Z,-0.50
2023-04-04T01:22:18.773Z,-0.50
2023-04-04T01:24:57.678Z,-0.49
2023-04-04T01:27:34.564Z,-0.44
2023-04-04T01:30:19.071Z,-0.48
2023-04-04T01:33:01.901Z,-0.51
2023-04-04T01:35:42.913Z,-0.52
2023-04-04T01:38:27.145Z,-0.50
2023-04-04T01:41:09.510Z,-0.49
2023-04-04T01:43:51.929Z,-0.45
2023-04-04T01:46:29.393Z,-0.44
2023-04-04T01:49:05.097Z,-0.43
2023-04-04T01:51:42.834Z,-0.37
2023-04-04T01:54:28.574Z,-0.32
2023-04-04T01:57:03.921Z,-0.32
2023-04-04T01:59:41.078Z,-0.29
2023-04-04T02:02:16.368Z,-0.26
2023-04-04T02:04:52.533Z,-0.21
2023-04-04T02:07:26.337Z,-0.16
2023-04-04T02:10:03.661Z,-0.11
2023-04-04T02:12:40.379Z,-0.12
2023-04-04T02:15:17.917Z,-0.09
2023-04-04T02:17:55.007Z,-0.05
2023-04-04T02:20:31.680Z,-0.02
2023-04-04T02:23:08.318Z,-0.02
2023-04-04T02:25:42.428Z,0.01
2023-04-04T02:28:17.020Z,0.02
2023-04-04T02:30:54.213Z,0.04
2023-04-04T02:33:28.952Z,0.03
2023-04-04T02:36:08.114Z,0.04
2023-04-04T02:38:43.149Z,0.08
2023-04-04T02:41:21.623Z,0.11
2023-04-04T02:43:56.270Z,0.11
2023-04-04T02:46:32.189Z,0.12
2023-04-04T02:49:10.064Z,0.12
2023-04-04T02:51:47.703Z,0.15
2023-04-04T02:54:25.152Z,0.16
2023-04-04T02:57:00.759Z,0.22
2023-04-04T02:59:35.222Z,0.21
2023-04-04T03:02:12.859Z,0.22
2023-04-04T03:04:49.556Z,0.23
2023-04-04T03:07:26.101Z,0.23
2023-04-04T03:10:02.285Z,0.22
2023-04-04T03:12:37.206Z,0.23
2023-04-04T03:15:15.309Z,0.23
2023-04-04T03:17:51.916Z,0.26
2023-04-04T03:20:29.123Z,0.26
2023-04-04T03:23:06.284Z,0.30
2023-04-04T03:25:40.513Z,0.27
2023-04-04T03:28:18.604Z,0.27
2023-04-04T03:30:55.785Z,0.28
2023-04-04T03:33:30.939Z,0.26
2023-04-04T03:36:11.141Z,0.27
2023-04-04T03:38:48.362Z,0.27
2023-04-04T03:41:22.368Z,0.26
2023-04-04T03:43:58.554Z,0.24
2023-04-04T03:46:35.387Z,0.23
2023-04-04T03:49:12.605Z,0.24
2023-04-04T03:51:48.871Z,0.23
2023-04-04T03:54:24.776Z,0.25
2023-04-04T03:57:00.816Z,0.28
2023-04-04T03:59:37.610Z,0.28
2023-04-04T04:02:13.114Z,0.25
2023-04-04T04:04:47.539Z,0.24
2023-04-04T04:07:23.652Z,0.27
2023-04-04T04:10:00.851Z,0.28
2023-04-04T04:12:37.206Z,0.30
2023-04-04T04:15:13.644Z,0.32
2023-04-04T04:17:49.750Z,0.32
2023-04-04T04:20:24.682Z,0.30
2023-04-04T04:23:01.760Z,0.31
2023-04-04T04:25:39.606Z,0.31
2023-04-04T04:28:21.628Z,0.34
2023-04-04T04:30:56.322Z,0.37
2023-04-04T04:33:33.010Z,0.34
2023-04-04T04:36:12.859Z,0.36
2023-04-04T04:38:55.774Z,0.42
2023-04-04T04:41:35.064Z,0.44
2023-04-04T04:44:11.331Z,0.48
2023-04-04T04:46:47.676Z,0.49
2023-04-04T04:49:25.397Z,0.49
2023-04-04T04:52:01.406Z,0.52
2023-04-04T04:54:38.480Z,0.55
2023-04-04T04:57:14.588Z,0.56
2023-04-04T04:59:50.560Z,0.57
2023-04-04T05:02:26.166Z,0.59
2023-04-04T05:05:03.416Z,0.59
2023-04-04T05:07:40.051Z,0.61
2023-04-04T05:10:14.687Z,0.62
2023-04-04T05:12:52.067Z,0.64
2023-04-04T05:15:30.504Z,0.65
2023-04-04T05:18:06.296Z,0.68
2023-04-04T05:20:41.470Z,0.68
2023-04-04T05:23:17.586Z,0.68
2023-04-04T05:25:53.844Z,0.69
2023-04-04T05:28:30.751Z,0.70
2023-04-04T05:31:09.627Z,0.73
2023-04-04T05:33:46.694Z,0.78
2023-04-04T05:36:43.305Z,0.78
2023-04-04T05:39:18.888Z,0.80
2023-04-04T05:42:03.522Z,0.84
2023-04-04T05:44:41.731Z,0.87
2023-04-04T05:47:16.146Z,0.89
2023-04-04T05:49:56.608Z,0.95
2023-04-04T05:52:49.368Z,1.01
2023-04-04T05:55:24.935Z,1.03
2023-04-04T05:58:05.615Z,1.07
2023-04-04T06:01:00.410Z,1.12
2023-04-04T06:03:36.945Z,1.14
2023-04-04T06:06:16.153Z,1.17
2023-04-04T06:08:53.819Z,1.24
2023-04-04T06:11:34.708Z,1.30
2023-04-04T06:14:14.042Z,1.32
2023-04-04T06:16:52.885Z,1.38
2023-04-04T06:19:30.313Z,1.39
2023-04-04T06:22:05.842Z,1.42
2023-04-04T06:24:44.250Z,1.43
2023-04-04T06:27:19.099Z,1.45
2023-04-04T06:29:54.434Z,1.50
2023-04-04T06:32:30.731Z,1.53
2023-04-04T06:35:08.701Z,1.53
2023-04-04T06:37:56.824Z,1.57
2023-04-04T06:40:34.497Z,1.65
2023-04-04T06:43:12.424Z,1.63
2023-04-04T06:45:54.384Z,1.61
2023-04-04T06:48:31.152Z,1.61
2023-04-04T06:51:09.853Z,1.65
2023-04-04T06:53:47.663Z,1.72
2023-04-04T06:56:21.848Z,1.81
2023-04-04T06:59:02.450Z,1.90
2023-04-04T07:01:39.464Z,1.90
2023-04-04T07:04:14.323Z,1.85
2023-04-04T07:06:48.877Z,1.85
2023-04-04T07:09:29.245Z,1.90
2023-04-04T07:12:05.602Z,1.90
2023-04-04T07:14:41.548Z,1.88
2023-04-04T07:17:24.695Z,1.84
2023-04-04T07:20:08.797Z,1.84
2023-04-04T07:22:45.549Z,1.94
2023-04-04T07:25:23.991Z,2.06
2023-04-04T07:28:11.719Z,2.16
2023-04-04T07:30:47.926Z,2.18
2023-04-04T07:33:21.615Z,2.19
2023-04-04T07:35:57.424Z,2.20
2023-04-04T07:38:33.862Z,2.21
2023-04-04T07:41:10.233Z,2.25
2023-04-04T07:43:45.320Z,2.27
2023-04-04T07:46:23.348Z,2.29
2023-04-04T07:49:00.652Z,2.21
2023-04-04T07:51:36.190Z,2.18
2023-04-04T07:54:14.148Z,2.22
2023-04-04T07:56:50.708Z,2.32
2023-04-04T07:59:25.566Z,2.39
2023-04-04T08:02:00.934Z,2.44
2023-04-04T08:04:35.179Z,2.43
2023-04-04T08:07:11.944Z,2.43
2023-04-04T08:09:47.493Z,2.47
2023-04-04T08:12:23.475Z,2.53
2023-04-04T08:14:58.151Z,2.51
2023-04-04T08:17:35.300Z,2.47
2023-04-04T08:20:13.857Z,2.47
2023-04-04T08:22:50.757Z,2.41
2023-04-04T08:25:29.804Z,2.34
2023-04-04T08:28:05.944Z,2.35
2023-04-04T08:30:41.634Z,2.43
2023-04-04T08:33:18.023Z,2.50
2023-04-04T08:35:55.786Z,2.54
2023-04-04T08:38:30.126Z,2.62
2023-04-04T08:41:05.403Z,2.67
2023-04-04T08:43:41.648Z,2.65
2023-04-04T08:46:23.853Z,2.61
2023-04-04T08:49:00.968Z,2.61
2023-04-04T08:51:38.659Z,2.63
2023-04-04T08:54:19.865Z,2.67
2023-04-04T08:56:55.413Z,2.69
2023-04-04T08:59:30.287Z,2.62
2023-04-04T09:02:23.839Z,2.67
2023-04-04T09:05:06.213Z,2.71
2023-04-04T09:07:43.417Z,2.75
2023-04-04T09:10:19.648Z,2.82
2023-04-04T09:13:05.087Z,2.86
2023-04-04T09:15:51.134Z,2.82
2023-04-04T09:18:27.479Z,2.86
2023-04-04T09:21:13.422Z,2.92
2023-04-04T09:23:49.017Z,2.92
2023-04-04T09:26:24.391Z,2.94
2023-04-04T09:29:00.724Z,2.96
2023-04-04T09:31:35.496Z,3.00
2023-04-04T09:34:13.837Z,3.02
2023-04-04T09:36:48.784Z,3.17
2023-04-04T09:39:24.248Z,3.18
2023-04-04T09:42:02.588Z,3.23
2023-04-04T09:44:41.685Z,3.40
2023-04-04T09:47:34.447Z,3.44
2023-04-04T09:50:22.481Z,3.45
2023-04-04T09:53:03.690Z,3.53
2023-04-04T09:55:41.338Z,3.64
2023-04-04T09:58:20.209Z,3.62
2023-04-04T10:00:58.091Z,3.54
2023-04-04T10:03:33.581Z,3.51
2023-04-04T10:06:10.290Z,3.49
2023-04-04T10:08:47.402Z,3.45
2023-04-04T10:11:38.816Z,3.50
2023-04-04T10:14:15.425Z,3.64
2023-04-04T10:16:50.683Z,3.75
2023-04-04T10:19:30.655Z,3.85
2023-04-04T10:22:05.584Z,3.94
2023-04-04T10:24:40.721Z,3.96
2023-04-04T10:27:13.652Z,4.01
2023-04-04T10:29:50.136Z,4.05
2023-04-04T10:32:30.687Z,4.06
2023-04-04T10:35:11.013Z,4.04
2023-04-04T10:37:48.026Z,4.07
2023-04-04T10:40:24.873Z,4.07
2023-04-04T10:43:01.381Z,4.03
2023-04-04T10:45:40.368Z,4.11
2023-04-04T10:48:15.996Z,4.23
2023-04-04T10:50:53.804Z,4.30
2023-04-04T10:53:29.621Z,4.33
2023-04-04T10:56:05.206Z,4.39
2023-04-04T10:58:44.125Z,4.35
2023-04-04T11:01:22.339Z,4.32
2023-04-04T11:04:22.125Z,4.36
2023-04-04T11:07:13.898Z,4.37
2023-04-04T11:10:02.193Z,4.43
2023-04-04T11:12:46.203Z,4.53
2023-04-04T11:15:35.384Z,4.61
2023-04-04T11:18:30.741Z,4.64
2023-04-04T11:21:09.957Z,4.71
2023-04-04T11:24:20.020Z,4.82
2023-04-04T11:26:57.252Z,4.84
2023-04-04T11:29:59.852Z,4.82
2023-04-04T11:32:56.101Z,4.80
2023-04-04T11:35:41.479Z,4.78
2023-04-04T11:38:22.514Z,4.73
2023-04-04T11:41:01.757Z,4.65
2023-04-04T11:43:46.473Z,4.62
2023-04-04T11:46:21.615Z,4.60
2023-04-04T11:48:58.519Z,4.59
2023-04-04T11:51:35.162Z,4.63
2023-04-04T11:54:16.952Z,4.59
2023-04-04T11:56:54.924Z,4.58
2023-04-04T11:59:31.074Z,4.54
2023-04-04T12:02:09.745Z,4.53
2023-04-04T12:04:45.772Z,4.47
2023-04-04T12:07:22.204Z,4.39
2023-04-04T12:10:00.427Z,4.34
2023-04-04T12:12:43.913Z,4.35
2023-04-04T12:15:21.764Z,4.35
2023-04-04T12:17:59.032Z,4.39
2023-04-04T12:20:34.821Z,4.43
2023-04-04T12:23:11.119Z,4.48
2023-04-04T12:25:50.313Z,4.60
2023-04-04T12:28:29.496Z,4.70
2023-04-04T12:31:06.319Z,4.69
2023-04-04T12:33:42.369Z,4.68
2023-04-04T12:36:18.485Z,4.77
2023-04-04T12:39:10.719Z,4.84
2023-04-04T12:41:55.603Z,4.80
2023-04-04T12:44:36.320Z,4.75
2023-04-04T12:47:16.582Z,4.76
2023-04-04T12:49:55.556Z,4.78
2023-04-04T12:52:33.719Z,4.82
2023-04-04T12:55:21.888Z,4.88
2023-04-04T12:58:17.279Z,4.89
2023-04-04T13:00:54.858Z,4.93
2023-04-04T13:03:33.827Z,4.90
2023-04-04T13:06:15.459Z,4.88
2023-04-04T13:08:56.287Z,4.86
2023-04-04T13:12:03.069Z,4.97
2023-04-04T13:15:19.506Z,4.98
2023-04-04T13:18:14.830Z,4.92
2023-04-04T13:20:50.306Z,4.88
2023-04-04T13:23:27.200Z,4.97
2023-04-04T13:26:05.796Z,5.05
2023-04-04T13:28:43.288Z,5.13
2023-04-04T13:31:17.866Z,5.16
2023-04-04T13:33:53.029Z,5.13
2023-04-04T13:36:30.143Z,5.07
2023-04-04T13:39:05.764Z,5.00
2023-04-04T13:41:41.533Z,4.98
2023-04-04T13:44:17.548Z,4.96
2023-04-04T13:46:52.841Z,5.00
2023-04-04T13:49:27.958Z,5.03
2023-04-04T13:52:03.086Z,5.04
2023-04-04T13:54:37.477Z,5.04
2023-04-04T13:57:11.567Z,5.05
2023-04-04T13:59:46.402Z,5.01
2023-04-04T14:02:24.160Z,5.08
2023-04-04T14:05:02.261Z,5.15
2023-04-04T14:07:38.922Z,5.19
2023-04-04T14:10:16.981Z,5.17
2023-04-04T14:12:53.500Z,5.19
2023-04-04T14:15:30.561Z,5.20
2023-04-04T14:18:07.108Z,5.23
2023-04-04T14:20:40.423Z,5.24
2023-04-04T14:23:17.163Z,5.28
2023-04-04T14:25:56.157Z,5.29
2023-04-04T14:28:32.275Z,5.40
2023-04-04T14:31:06.470Z,5.45
2023-04-04T14:33:48.053Z,5.54
2023-04-04T14:36:25.023Z,5.62
2023-04-04T14:39:00.446Z,5.63
2023-04-04T14:41:37.572Z,5.63
2023-04-04T14:44:16.102Z,5.71
2023-04-04T14:46:52.300Z,5.77
2023-04-04T14:49:27.379Z,5.78
2023-04-04T14:52:04.979Z,5.84
2023-04-04T14:54:39.841Z,5.92
2023-04-04T14:57:18.990Z,5.95
2023-04-04T14:59:54.510Z,5.90
2023-04-04T15:02:33.038Z,5.82
2023-04-04T15:05:09.578Z,5.77
2023-04-04T15:07:44.883Z,5.72
2023-04-04T15:10:19.207Z,5.62
2023-04-04T15:12:53.812Z,5.54
2023-04-04T15:15:30.491Z,5.42
2023-04-04T15:18:10.596Z,5.33
2023-04-04T15:20:45.536Z,5.28
2023-04-04T15:23:21.340Z,5.31
2023-04-04T15:25:58.619Z,5.35
2023-04-04T15:28:33.973Z,5.43
2023-04-04T15:31:08.364Z,5.49
2023-04-04T15:33:46.814Z,5.52
2023-04-04T15:36:27.379Z,5.50
2023-04-04T15:39:04.553Z,5.47
2023-04-04T15:41:41.729Z,5.48
2023-04-04T15:44:19.112Z,5.43
2023-04-04T15:46:55.109Z,5.44
2023-04-04T15:49:31.672Z,5.42
2023-04-04T15:52:08.131Z,5.45
2023-04-04T15:54:47.797Z,5.45
2023-04-04T15:57:22.643Z,5.44
2023-04-04T15:59:58.039Z,5.46
2023-04-04T16:02:35.113Z,5.44
2023-04-04T16:05:11.366Z,5.44
2023-04-04T16:07:47.800Z,5.45
2023-04-04T16:10:22.216Z,5.47
2023-04-04T16:13:00.921Z,5.47
2023-04-04T16:15:38.852Z,5.38
2023-04-04T16:18:13.810Z,5.26
2023-04-04T16:20:50.060Z,5.19
2023-04-04T16:23:23.961Z,5.15
2023-04-04T16:25:59.367Z,5.06
2023-04-04T16:28:34.682Z,4.97
2023-04-04T16:31:09.536Z,4.98
2023-04-04T16:33:45.801Z,4.99
2023-04-04T16:36:20.969Z,4.93
2023-04-04T16:38:58.281Z,4.83
2023-04-04T16:41:34.892Z,4.77
2023-04-04T16:44:09.543Z,4.70
2023-04-04T16:46:45.377Z,4.66
2023-04-04T16:49:23.199Z,4.62
2023-04-04T16:51:58.964Z,4.58
2023-04-04T16:54:38.631Z,4.51
2023-04-04T16:57:13.518Z,4.46
2023-04-04T16:59:48.580Z,4.40
2023-04-04T17:02:22.681Z,4.34
2023-04-04T17:05:01.378Z,4.24
2023-04-04T17:07:36.202Z,4.14
2023-04-04T17:10:15.694Z,4.11
2023-04-04T17:12:49.568Z,4.09
2023-04-04T17:15:25.494Z,4.06
2023-04-04T17:18:01.683Z,4.03
2023-04-04T17:20:38.171Z,4.00
2023-04-04T17:23:11.579Z,3.97
2023-04-04T17:25:45.891Z,3.98
2023-04-04T17:28:20.790Z,3.96
2023-04-04T17:30:57.637Z,3.95
2023-04-04T17:33:33.126Z,3.93
2023-04-04T17:36:13.084Z,3.90
2023-04-04T17:38:50.220Z,3.83
2023-04-04T17:41:24.860Z,3.81
2023-04-04T17:43:59.551Z,3.81
2023-04-04T17:46:36.526Z,3.69
2023-04-04T17:49:12.575Z,3.64
2023-04-04T17:51:48.230Z,3.61
2023-04-04T17:54:26.018Z,3.55
2023-04-04T17:57:05.734Z,3.52
2023-04-04T17:59:41.728Z,3.47
2023-04-04T18:02:20.868Z,3.46
2023-04-04T18:04:59.666Z,3.45
2023-04-04T18:07:34.752Z,3.39
2023-04-04T18:10:14.227Z,3.33
2023-04-04T18:12:49.043Z,3.24
2023-04-04T18:15:24.386Z,3.22
2023-04-04T18:17:59.866Z,3.24
2023-04-04T18:20:38.520Z,3.19
2023-04-04T18:23:14.124Z,3.11
2023-04-04T18:25:49.748Z,3.07
2023-04-04T18:28:27.648Z,3.02
2023-04-04T18:31:02.568Z,3.01
2023-04-04T18:33:38.699Z,3.00
2023-04-04T18:36:12.891Z,3.00
2023-04-04T18:38:49.027Z,2.98
2023-04-04T18:41:24.866Z,2.95
2023-04-04T18:44:01.129Z,2.83
2023-04-04T18:46:35.464Z,2.78
2023-04-04T18:49:10.273Z,2.74
2023-04-04T18:51:47.771Z,2.69
2023-04-04T18:54:23.367Z,2.60
2023-04-04T18:56:59.060Z,2.62
2023-04-04T18:59:33.892Z,2.65
2023-04-04T19:02:08.850Z,2.56
2023-04-04T19:04:44.667Z,2.43
2023-04-04T19:07:22.312Z,2.38
2023-04-04T19:09:58.384Z,2.30
2023-04-04T19:12:40.941Z,2.24
2023-04-04T19:15:15.683Z,2.15
2023-04-04T19:17:53.589Z,2.11
2023-04-04T19:20:29.411Z,2.05
2023-04-04T19:23:07.757Z,1.96
2023-04-04T19:25:44.091Z,1.92
2023-04-04T19:28:19.444Z,1.92
2023-04-04T19:30:55.600Z,1.97
2023-04-04T19:33:29.372Z,1.98
2023-04-04T19:36:11.773Z,1.94
2023-04-04T19:38:49.347Z,1.89
2023-04-04T19:41:46.968Z,1.88
2023-04-04T19:44:22.482Z,1.84
2023-04-04T19:47:00.012Z,1.79
2023-04-04T19:49:36.828Z,1.76
2023-04-04T19:52:13.168Z,1.70
2023-04-04T19:54:49.098Z,1.69
2023-04-04T19:57:24.019Z,1.69
2023-04-04T20:00:11.180Z,1.67
2023-04-04T20:03:07.950Z,1.63
2023-04-04T20:06:00.017Z,1.59
2023-04-04T20:08:48.127Z,1.54
2023-04-04T20:11:30.859Z,1.51
2023-04-04T20:14:09.258Z,1.49
2023-04-04T20:16:44.693Z,1.44
2023-04-04T20:19:21.791Z,1.42
2023-04-04T20:21:59.608Z,1.39
2023-04-04T20:24:37.160Z,1.37
2023-04-04T20:27:13.339Z,1.36
2023-04-04T20:29:52.711Z,1.30
2023-04-04T20:32:27.901Z,1.25
2023-04-04T20:35:02.676Z,1.16
2023-04-04T20:37:39.465Z,1.09
2023-04-04T20:40:37.127Z,1.04
2023-04-04T20:43:12.231Z,0.96
2023-04-04T20:45:49.868Z,0.92
2023-04-04T20:48:40.398Z,0.92
2023-04-04T20:51:24.877Z,0.89
2023-04-04T20:54:04.198Z,0.81
2023-04-04T20:56:56.800Z,0.76
2023-04-04T21:00:04.945Z,0.73
2023-04-04T21:02:40.766Z,0.68
2023-04-04T21:05:30.681Z,0.65
2023-04-04T21:08:10.695Z,0.62
2023-04-04T21:10:55.106Z,0.59
2023-04-04T21:13:32.792Z,0.55
2023-04-04T21:16:12.243Z,0.56
2023-04-04T21:18:49.441Z,0.56
2023-04-04T21:21:26.623Z,0.57
2023-04-04T21:24:10.222Z,0.56
2023-04-04T21:26:45.945Z,0.56
2023-04-04T21:29:27.644Z,0.50
2023-04-04T21:32:04.037Z,0.40
2023-04-04T21:34:39.241Z,0.32
2023-04-04T21:37:16.307Z,0.27
2023-04-04T21:39:53.692Z,0.25
2023-04-04T21:42:27.729Z,0.25
2023-04-04T21:45:04.634Z,0.24
2023-04-04T21:47:41.007Z,0.25
2023-04-04T21:50:16.958Z,0.24
2023-04-04T21:52:50.913Z,0.23
2023-04-04T21:55:27.580Z,0.22
2023-04-04T21:58:02.530Z,0.19
2023-04-04T22:00:40.474Z,0.16
2023-04-04T22:03:17.341Z,0.10
2023-04-04T22:05:51.973Z,0.09
2023-04-04T22:08:29.178Z,0.06
2023-04-04T22:11:07.740Z,0.05
2023-04-04T22:13:48.167Z,0.06
2023-04-04T22:16:26.875Z,0.07
2023-04-04T22:19:04.537Z,0.09
2023-04-04T22:21:50.293Z,0.09
2023-04-04T22:24:24.722Z,0.08
2023-04-04T22:27:04.906Z,0.09
2023-04-04T22:29:42.339Z,0.09
2023-04-04T22:32:18.998Z,0.10
2023-04-04T22:34:54.420Z,0.11
2023-04-04T22:37:34.191Z,0.10
2023-04-04T22:40:14.233Z,0.09
2023-04-04T22:42:50.946Z,0.07
2023-04-04T22:45:30.460Z,0.07
2023-04-04T22:48:10.980Z,0.05
2023-04-04T22:50:50.543Z,0.04
2023-04-04T22:53:30.038Z,0.03
2023-04-04T22:56:13.379Z,0.04
2023-04-04T22:58:49.125Z,0.03
2023-04-04T23:01:27.954Z,0.01
2023-04-04T23:04:06.642Z,0.02
2023-04-04T23:06:42.144Z,-0.01
2023-04-04T23:09:23.169Z,-0.01
2023-04-04T23:11:59.537Z,-0.06
2023-04-04T23:14:39.050Z,-0.11
2023-04-04T23:17:17.545Z,-0.10
2023-04-04T23:19:53.264Z,-0.08
2023-04-04T23:22:29.646Z,-0.05
2023-04-04T23:25:04.870Z,-0.05
2023-04-04T23:27:40.552Z,-0.06
2023-04-04T23:30:16.570Z,-0.05
2023-04-04T23:32:53.212Z,-0.05
2023-04-04T23:35:28.087Z,-0.09
2023-04-04T23:38:02.762Z,-0.09
2023-04-04T23:40:36.942Z,-0.15
2023-04-04T23:43:13.111Z,-0.16
2023-04-04T23:45:50.184Z,-0.16
2023-04-04T23:48:26.340Z,-0.25
2023-04-04T23:51:05.295Z,-0.27
2023-04-04T23:53:44.212Z,-0.33
2023-04-04T23:56:22.024Z,-0.34
2023-04-04T23:59:10.100Z,-0.34
